To NAV CANADA Home Page Login to a new session Search on AWWS site Disclaimer Vers la page française équivalente Tips FAQ What's new on the site To the Forecasts and Observations / NOTAM section To "File a Flight Plan" website Publications and other links Update of the User's profile FIC Telephone Numbers My Weather Data Folder Route Weather Data Regional Weather Data Local Weather Data To the Forecasts and Observations / NOTAM section
Request Generated 10/19/2018 at 16:29:46 UTC . Weather information available at that time is displayed.

METAR/TAF

MONTREAL/PIERRE-ELLIOTT-TRUDEAU INTL/QC    

METAR CYUL 191600Z 23018G28KT 30SM FEW030 FEW240 13/04 A2991 RMK CU1CI1 SLP130=
METAR CYUL 191500Z 23015G25KT 30SM FEW030 FEW240 11/05 A2994 RMK CF1CI1 SLP140=
METAR CYUL 191400Z 23016KT 30SM FEW020 FEW230 09/04 A2997 RMK CF1CI2 CF TR SLP152=

TAF CYUL 191438Z 1915/2012 23015G25KT P6SM FEW230
BECMG 1916/1918 23018G30KT
FM192300 22015G25KT P6SM FEW025 OVC150
FM200400 22015G25KT P6SM OVC100
FM200700 22015G25KT P6SM -RA OVC030
FM201000 22018G28KT 5SM -RA BR OVC020
RMK NXT FCST BY 191800Z=
Your time UTC time
Weather data provided by Environment Canada and NAV CANADA